createdAt,value
2017-10-14T00:04:48.981Z,32.60
2017-10-14T00:09:51.913Z,27.37
2017-10-14T00:14:54.982Z,33.13
2017-10-14T00:19:58.236Z,33.03
2017-10-14T00:25:01.258Z,32.60
2017-10-14T00:30:04.232Z,32.60
2017-10-14T00:35:07.461Z,31.50
2017-10-14T00:40:11.345Z,27.70
2017-10-14T00:45:14.439Z,32.53
2017-10-14T00:50:18.095Z,31.80
2017-10-14T00:55:22.046Z,31.17
2017-10-14T01:00:25.648Z,29.47
2017-10-14T01:05:28.796Z,27.17
2017-10-14T01:10:32.749Z,28.97
2017-10-14T01:15:35.904Z,28.10
2017-10-14T01:20:39.268Z,32.80
2017-10-14T01:25:42.509Z,27.20
2017-10-14T01:30:45.625Z,38.77
2017-10-14T01:35:48.925Z,25.90
2017-10-14T01:40:52.736Z,30.00
2017-10-14T01:45:55.837Z,35.63
2017-10-14T01:50:59.075Z,34.73
2017-10-14T01:56:02.446Z,38.93
2017-10-14T02:01:05.308Z,26.33
2017-10-14T02:06:08.893Z,25.93
2017-10-14T02:11:11.911Z,27.43
2017-10-14T02:16:19.794Z,30.43
2017-10-14T02:21:25.716Z,35.10
2017-10-14T02:26:33.031Z,35.80
2017-10-14T02:31:37.556Z,30.50
2017-10-14T02:36:40.804Z,31.30
2017-10-14T02:41:47.095Z,32.83
2017-10-14T02:46:52.361Z,35.40
2017-10-14T02:51:57.837Z,41.10
2017-10-14T02:57:05.473Z,37.77
2017-10-14T03:02:08.863Z,32.33
2017-10-14T03:07:12.721Z,33.33
2017-10-14T03:12:15.624Z,36.30
2017-10-14T03:17:20.372Z,29.17
2017-10-14T03:22:26.360Z,27.17
2017-10-14T03:27:32.327Z,28.50
2017-10-14T03:32:39.196Z,34.07
2017-10-14T03:37:43.825Z,29.40
2017-10-14T03:42:48.147Z,27.37
2017-10-14T03:47:57.076Z,28.80
2017-10-14T03:53:05.407Z,29.50
2017-10-14T03:58:09.036Z,31.40
2017-10-14T04:03:14.172Z,29.60
2017-10-14T04:08:16.936Z,32.03
2017-10-14T04:13:23.280Z,30.77
2017-10-14T04:18:27.933Z,39.30
2017-10-14T04:23:33.262Z,42.53
2017-10-14T04:28:36.461Z,30.33
2017-10-14T04:33:39.685Z,37.43
2017-10-14T04:38:46.978Z,31.63
2017-10-14T04:43:59.122Z,29.07
2017-10-14T04:49:04.568Z,44.40
2017-10-14T04:54:09.159Z,41.63
2017-10-14T04:59:23.082Z,39.13
2017-10-14T05:04:26.124Z,51.50
2017-10-14T05:09:33.893Z,46.60
2017-10-14T05:14:37.553Z,52.97
2017-10-14T05:19:42.613Z,48.50
2017-10-14T05:24:44.903Z,46.03
2017-10-14T05:29:50.200Z,45.60
2017-10-14T05:34:52.174Z,47.40
2017-10-14T05:39:54.064Z,52.10
2017-10-14T05:44:55.983Z,52.33
2017-10-14T05:49:57.904Z,50.03
2017-10-14T05:55:00.529Z,49.03
2017-10-14T06:00:06.977Z,54.13
2017-10-14T06:05:09.064Z,56.87
2017-10-14T06:10:10.991Z,54.33
2017-10-14T06:15:13.550Z,49.67
2017-10-14T06:20:15.496Z,40.77
2017-10-14T06:25:17.416Z,46.63
2017-10-14T06:30:20.606Z,43.97
2017-10-14T06:35:25.588Z,43.17
2017-10-14T06:40:28.936Z,46.87
2017-10-14T06:45:32.027Z,44.13
2017-10-14T06:50:36.635Z,36.20
2017-10-14T06:55:41.386Z,45.17
2017-10-14T07:00:44.372Z,35.73
2017-10-14T07:05:46.306Z,36.30
2017-10-14T07:10:48.964Z,37.27
2017-10-14T07:15:50.876Z,36.17
2017-10-14T07:20:52.800Z,39.20
2017-10-14T07:25:55.464Z,37.20
2017-10-14T07:30:58.086Z,37.20
2017-10-14T07:35:59.973Z,32.70
2017-10-14T07:41:02.672Z,38.57
2017-10-14T07:46:04.595Z,39.90
2017-10-14T07:51:07.345Z,27.63
2017-10-14T07:56:09.310Z,29.97
2017-10-14T08:01:11.999Z,30.30
2017-10-14T08:06:13.920Z,26.73
2017-10-14T08:11:16.648Z,35.23
2017-10-14T08:16:18.547Z,23.90
2017-10-14T08:21:20.442Z,34.43
2017-10-14T08:26:22.349Z,30.80
2017-10-14T08:31:24.386Z,22.47
2017-10-14T08:36:27.404Z,23.57
2017-10-14T08:41:30.860Z,15.97
2017-10-14T08:46:32.811Z,23.73
2017-10-14T08:51:34.856Z,18.80
2017-10-14T08:56:40.824Z,14.83
2017-10-14T09:01:43.116Z,13.30
2017-10-14T09:06:45.152Z,19.63
2017-10-14T09:11:47.291Z,17.53
2017-10-14T09:16:50.061Z,13.80
2017-10-14T09:21:52.063Z,11.33
2017-10-14T09:27:00.498Z,10.87
2017-10-14T09:32:02.689Z,14.33
2017-10-14T09:37:04.793Z,10.50
2017-10-14T09:42:07.537Z,9.87
2017-10-14T09:47:11.575Z,6.00
2017-10-14T09:52:14.602Z,20.57
2017-10-14T09:57:18.579Z,8.23
2017-10-14T10:02:20.647Z,6.40
2017-10-14T10:07:27.052Z,6.57
2017-10-14T10:12:35.254Z,8.00
2017-10-14T10:17:37.565Z,7.27
2017-10-14T10:22:39.565Z,9.07
2017-10-14T10:27:44.030Z,7.87
2017-10-14T10:32:46.406Z,7.50
2017-10-14T10:37:49.131Z,32.87
2017-10-14T10:42:51.836Z,5.50
2017-10-14T10:47:53.759Z,3.90
2017-10-14T10:52:55.778Z,5.10
2017-10-14T10:57:58.726Z,22.00
2017-10-14T11:03:01.745Z,10.50
2017-10-14T11:13:13.168Z,5.90
2017-10-14T11:18:15.590Z,3.33
2017-10-14T11:23:17.675Z,6.70
2017-10-14T11:28:19.619Z,5.70
2017-10-14T11:33:22.371Z,13.77
2017-10-14T11:38:25.521Z,5.43
2017-10-14T11:43:27.795Z,2.97
2017-10-14T11:48:32.836Z,5.00
2017-10-14T11:53:38.064Z,3.50
2017-10-14T11:58:40.013Z,4.83
2017-10-14T12:03:42.949Z,10.03
2017-10-14T12:08:45.427Z,8.43
2017-10-14T12:13:47.487Z,6.93
2017-10-14T12:18:49.967Z,5.47
2017-10-14T12:23:51.851Z,11.37
2017-10-14T12:28:53.756Z,7.80
2017-10-14T12:33:55.671Z,13.13
2017-10-14T12:38:57.683Z,3.60
2017-10-14T12:43:59.728Z,4.70
2017-10-14T12:49:01.669Z,7.60
2017-10-14T12:54:03.627Z,4.30
2017-10-14T12:59:05.520Z,5.83
2017-10-14T13:04:07.409Z,5.77
2017-10-14T13:09:15.769Z,7.77
2017-10-14T13:14:17.710Z,3.93
2017-10-14T13:19:20.432Z,5.80
2017-10-14T13:24:23.261Z,8.43
2017-10-14T13:29:25.928Z,4.00
2017-10-14T13:34:28.467Z,4.20
2017-10-14T13:39:30.550Z,8.77
2017-10-14T13:44:35.017Z,4.70
2017-10-14T13:49:41.085Z,16.80
2017-10-14T13:54:43.037Z,3.63
2017-10-14T13:59:45.911Z,8.70
2017-10-14T14:04:48.543Z,10.33
2017-10-14T14:09:50.509Z,6.30
2017-10-14T14:14:52.509Z,7.73
2017-10-14T14:19:58.966Z,10.10
2017-10-14T14:25:01.835Z,5.40
2017-10-14T14:30:04.674Z,6.63
2017-10-14T14:35:08.903Z,6.60
2017-10-14T14:40:13.259Z,7.50
2017-10-14T14:45:15.282Z,7.50
2017-10-14T14:50:24.042Z,6.90
2017-10-14T14:55:26.495Z,4.30
2017-10-14T15:00:35.053Z,9.13
2017-10-14T15:05:40.101Z,5.60
2017-10-14T15:15:51.559Z,11.80
2017-10-14T15:20:56.466Z,4.23
2017-10-14T15:25:58.739Z,9.00
2017-10-14T15:31:01.785Z,5.80
2017-10-14T15:36:04.281Z,122.23
2017-10-14T15:41:06.302Z,22.43
2017-10-14T15:46:08.278Z,45.70
2017-10-14T15:51:10.259Z,12.20
2017-10-14T15:56:13.882Z,14.60
2017-10-14T16:01:16.670Z,14.07
2017-10-14T16:06:19.171Z,7.93
2017-10-14T16:11:22.581Z,14.33
2017-10-14T16:16:26.788Z,12.53
2017-10-14T16:21:29.269Z,13.33
2017-10-14T16:31:47.144Z,7.83
2017-10-14T16:36:54.676Z,6.73
2017-10-14T16:42:13.749Z,10.55
2017-10-14T16:47:23.051Z,12.63
2017-10-14T16:52:26.359Z,7.97
2017-10-14T16:57:32.528Z,6.10
2017-10-14T17:02:40.855Z,7.53
2017-10-14T17:07:44.501Z,8.77
2017-10-14T17:12:53.662Z,6.93
2017-10-14T17:17:56.572Z,8.93
2017-10-14T17:23:02.134Z,8.40
2017-10-14T17:28:04.896Z,8.83
2017-10-14T17:33:08.377Z,8.83
2017-10-14T17:38:19.463Z,14.40
2017-10-14T17:43:38.406Z,12.13
2017-10-14T17:48:42.414Z,10.47
2017-10-14T17:53:47.485Z,12.20
2017-10-14T17:58:51.293Z,11.30
2017-10-14T18:03:54.548Z,12.17
2017-10-14T18:08:57.029Z,18.17
2017-10-14T18:14:07.099Z,13.87
2017-10-14T18:19:09.409Z,12.30
2017-10-14T18:24:12.594Z,14.97
2017-10-14T18:29:15.888Z,10.47
2017-10-14T18:34:19.827Z,12.90
2017-10-14T18:39:24.600Z,8.90
2017-10-14T18:44:28.892Z,13.33
2017-10-14T18:49:31.704Z,10.40
2017-10-14T18:54:35.664Z,15.60
2017-10-14T18:59:43.446Z,12.63
2017-10-14T19:04:51.945Z,21.13
2017-10-14T19:10:04.566Z,16.47
2017-10-14T19:15:07.284Z,16.27
2017-10-14T19:20:10.336Z,15.93
2017-10-14T19:25:15.075Z,17.87
2017-10-14T19:30:17.981Z,23.97
2017-10-14T19:35:20.944Z,16.93
2017-10-14T19:40:24.413Z,16.70
2017-10-14T19:45:27.606Z,15.37
2017-10-14T19:50:30.576Z,32.80
2017-10-14T19:55:34.112Z,16.80
2017-10-14T20:00:40.586Z,23.93
2017-10-14T20:05:43.340Z,26.50
2017-10-14T20:10:47.256Z,23.90
2017-10-14T20:15:50.357Z,20.97
2017-10-14T20:20:53.307Z,22.73
2017-10-14T20:25:56.476Z,26.97
2017-10-14T20:30:59.633Z,20.43
2017-10-14T20:36:02.543Z,19.50
2017-10-14T20:41:06.042Z,25.10
2017-10-14T20:46:08.896Z,26.23
2017-10-14T20:51:11.647Z,25.40
2017-10-14T20:56:15.655Z,23.70
2017-10-14T21:01:22.097Z,29.47
2017-10-14T21:06:28.061Z,25.83
2017-10-14T21:11:30.967Z,24.67
2017-10-14T21:16:33.816Z,25.17
2017-10-14T21:21:38.172Z,23.83
2017-10-14T21:26:42.179Z,25.23
2017-10-14T21:31:47.085Z,28.00
2017-10-14T21:36:51.725Z,21.43
2017-10-14T21:41:55.029Z,25.00
2017-10-14T21:46:58.537Z,29.53
2017-10-14T21:52:01.393Z,19.10
2017-10-14T21:57:05.101Z,21.53
2017-10-14T22:02:10.814Z,22.83
2017-10-14T22:07:14.599Z,24.77
2017-10-14T22:12:19.185Z,30.23
2017-10-14T22:17:23.131Z,25.87
2017-10-14T22:22:26.063Z,36.83
2017-10-14T22:27:31.284Z,32.30
2017-10-14T22:32:34.135Z,27.27
2017-10-14T22:37:37.089Z,26.97
2017-10-14T22:42:40.501Z,26.80
2017-10-14T22:47:43.474Z,27.10
2017-10-14T22:52:46.516Z,33.70
2017-10-14T22:57:57.162Z,32.33
2017-10-14T23:03:01.368Z,34.60
2017-10-14T23:08:05.510Z,38.03
2017-10-14T23:13:08.308Z,24.40
2017-10-14T23:18:11.317Z,31.43
2017-10-14T23:23:15.263Z,30.73
2017-10-14T23:28:19.112Z,39.57
2017-10-14T23:33:22.968Z,42.47
2017-10-14T23:38:26.714Z,29.93
2017-10-14T23:43:29.629Z,27.33
2017-10-14T23:48:32.530Z,38.00
2017-10-14T23:53:35.502Z,40.20
2017-10-14T23:58:39.037Z,36.40
